Time;durP1;ratioP1;P1;durP2;ratioP2;P2;SDS_P1;SDS_P2;PMS_P1;PMS_P2;Temp;Humidity;BMP_temperature;BMP_pressure;BME280_temperature;BME280_humidity;BME280_pressure;Samples;Min_cycle;Max_cycle;Signal;HPM_P1;HPM_P2
2021/09/30 00:06:40;;;;;;;19.60;14.30;;;;;;;11.58;74.38;99984.64;477772;1191;141989;-64
2021/09/30 00:16:59;;;;;;;19.80;15.50;;;;;;;11.67;74.51;99990.61;477582;1190;141297;-65
2021/09/30 00:48:00;;;;;;;20.00;17.20;;;;;;;11.86;75.24;99999.77;470799;1190;142563;-65
2021/09/30 01:19:51;;;;;;;35.30;30.80;;;;;;;11.90;75.75;100010.19;477177;1191;142046;-64
2021/09/30 01:45:37;;;;;;;24.00;21.20;;;;;;;11.90;76.33;100009.47;477817;1190;142713;-65
2021/09/30 02:22:39;;;;;;;27.00;20.70;;;;;;;11.80;77.51;100050.27;464282;1190;142786;-65
2021/09/30 03:04:10;;;;;;;27.00;21.90;;;;;;;11.68;78.55;100064.70;473505;1191;142603;-64
2021/09/30 03:14:17;;;;;;;25.50;20.30;;;;;;;11.68;78.77;100073.61;474838;1191;143218;-64
2021/09/30 03:24:26;;;;;;;27.50;20.40;;;;;;;11.67;78.93;100073.51;468865;1191;142368;-63
2021/09/30 03:34:32;;;;;;;22.70;18.50;;;;;;;11.73;79.11;100095.80;472951;1191;141884;-63
2021/09/30 03:44:39;;;;;;;25.20;21.00;;;;;;;11.68;79.19;100107.67;475739;1191;142288;-65
2021/09/30 03:54:53;;;;;;;27.00;20.90;;;;;;;11.63;79.61;100128.45;476257;1190;142369;-65
2021/09/30 04:04:59;;;;;;;30.30;22.10;;;;;;;11.72;79.89;100129.66;477501;1190;143097;-65
2021/09/30 04:15:07;;;;;;;30.50;25.20;;;;;;;11.78;79.91;100139.66;475642;1190;142302;-63
2021/09/30 04:25:13;;;;;;;30.20;25.70;;;;;;;11.80;79.94;100147.47;477781;1190;143678;-65
2021/09/30 04:35:21;;;;;;;26.10;21.40;;;;;;;11.76;79.80;100165.39;476842;1190;142432;-65
2021/09/30 04:45:27;;;;;;;22.80;17.10;;;;;;;11.63;79.39;100182.84;477598;1190;141379;-65
2021/09/30 04:55:33;;;;;;;18.80;16.00;;;;;;;11.41;78.98;100192.99;470297;1190;142522;-63
2021/09/30 05:05:39;;;;;;;18.00;15.80;;;;;;;11.20;79.01;100203.48;466037;1191;142856;-64
2021/09/30 05:15:45;;;;;;;20.70;14.70;;;;;;;11.07;78.95;100215.98;471324;1189;141740;-63
2021/09/30 05:25:51;;;;;;;17.90;13.50;;;;;;;11.11;78.85;100224.01;466851;1190;142571;-66
2021/09/30 05:35:57;;;;;;;15.10;12.00;;;;;;;11.61;78.51;100227.27;473770;1190;142694;-65
2021/09/30 05:46:06;;;;;;;13.70;11.90;;;;;;;12.86;76.70;100239.66;477856;1190;143205;-64
2021/09/30 05:56:12;;;;;;;14.80;11.20;;;;;;;12.71;75.06;100263.40;476498;1191;142585;-64
2021/09/30 06:16:47;;;;;;;12.80;9.10;;;;;;;12.11;75.63;100281.97;475215;1190;142608;-63
2021/09/30 06:27:07;;;;;;;11.10;8.80;;;;;;;12.10;75.57;100296.61;461976;1191;145985;-62
2021/09/30 06:37:13;;;;;;;8.70;7.20;;;;;;;12.21;75.26;100316.34;469951;1176;142286;-63
2021/09/30 06:47:19;;;;;;;7.30;6.40;;;;;;;12.02;74.97;100329.34;475439;1191;141693;-63
2021/09/30 06:57:28;;;;;;;10.10;7.30;;;;;;;11.87;74.99;100340.52;472880;1191;142585;-64
2021/09/30 07:07:35;;;;;;;10.20;6.20;;;;;;;11.87;74.95;100347.55;465335;1190;143117;-62
2021/09/30 07:17:41;;;;;;;10.30;7.90;;;;;;;11.85;74.76;100360.98;467857;1191;142468;-63
2021/09/30 07:27:47;;;;;;;6.20;5.50;;;;;;;11.71;74.83;100375.11;468509;1184;143477;-64
2021/09/30 07:37:53;;;;;;;8.00;6.70;;;;;;;11.71;74.86;100386.70;472489;1190;141190;-65
2021/09/30 07:47:59;;;;;;;8.50;6.70;;;;;;;11.54;74.84;100396.05;469718;1190;141648;-68
2021/09/30 07:58:09;;;;;;;6.50;5.00;;;;;;;11.62;75.04;100411.19;469528;1190;143553;-65
2021/09/30 08:08:15;;;;;;;9.20;5.00;;;;;;;11.87;74.73;100409.63;477070;1190;141609;-63
2021/09/30 08:18:20;;;;;;;8.90;4.70;;;;;;;12.55;73.91;100409.98;462363;1190;141077;-64
2021/09/30 08:28:26;;;;;;;6.70;5.70;;;;;;;12.97;72.51;100414.89;467275;1190;141384;-70
2021/09/30 08:38:32;;;;;;;6.30;3.50;;;;;;;13.07;71.43;100425.39;461031;1192;143494;-72
2021/09/30 08:48:40;;;;;;;3.90;2.50;;;;;;;13.07;70.25;100440.66;462134;1192;142471;-72
2021/09/30 08:58:47;;;;;;;6.30;2.50;;;;;;;12.96;69.73;100450.13;462569;1192;142383;-69
2021/09/30 09:09:18;;;;;;;4.40;3.00;;;;;;;13.16;69.22;100461.73;462301;1190;140798;-70
2021/09/30 09:19:34;;;;;;;4.10;1.70;;;;;;;13.73;67.53;100459.14;470165;1190;142408;-63
2021/09/30 09:29:43;;;;;;;4.80;2.00;;;;;;;14.06;66.13;100465.33;460947;1190;20001786;-67
2021/09/30 09:39:51;;;;;;;4.80;1.80;;;;;;;14.00;65.92;100475.39;461814;1190;141725;-67
2021/09/30 09:50:15;;;;;;;4.60;2.00;;;;;;;13.84;65.45;100483.79;462796;1190;141609;-67
2021/09/30 10:00:23;;;;;;;3.30;2.60;;;;;;;13.77;65.51;100478.27;468447;1190;141777;-66
2021/09/30 10:10:29;;;;;;;5.10;2.70;;;;;;;13.80;65.54;100478.62;469941;1190;142153;-66
2021/09/30 10:20:37;;;;;;;7.50;2.70;;;;;;;13.85;65.51;100494.82;471870;1190;142417;-65
2021/09/30 10:30:45;;;;;;;2.30;2.00;;;;;;;13.96;64.99;100499.25;463523;1190;142090;-66
2021/09/30 10:41:09;;;;;;;6.50;3.30;;;;;;;13.81;64.85;100498.56;470286;1190;141203;-68
2021/09/30 10:51:16;;;;;;;3.60;2.90;;;;;;;13.69;64.71;100494.02;469155;1190;142455;-66
2021/09/30 11:01:22;;;;;;;7.90;3.20;;;;;;;14.12;64.68;100488.52;461903;1176;141733;-65
2021/09/30 11:11:30;;;;;;;3.10;2.80;;;;;;;14.73;63.42;100487.06;477022;1190;142087;-67
2021/09/30 11:21:48;;;;;;;4.10;2.80;;;;;;;15.11;63.04;100480.80;471805;1190;143738;-61
2021/09/30 11:32:33;;;;;;;3.20;2.10;;;;;;;15.82;61.83;100479.55;474725;1190;144940;-64
2021/09/30 11:42:41;;;;;;;2.00;1.80;;;;;;;15.89;59.72;100481.73;467996;1191;141816;-61
2021/09/30 11:52:58;;;;;;;1.90;1.00;;;;;;;15.53;59.18;100484.96;477494;1191;142549;-58
2021/09/30 12:03:06;;;;;;;3.40;1.50;;;;;;;15.63;58.63;100480.58;466999;1191;141903;-59
2021/09/30 12:13:19;;;;;;;4.30;0.80;;;;;;;16.06;57.17;100482.63;476893;1190;140987;-59
2021/09/30 12:23:27;;;;;;;1.50;0.90;;;;;;;16.49;56.34;100491.86;477037;1190;140943;-58
2021/09/30 12:33:33;;;;;;;4.90;2.80;;;;;;;16.87;55.24;100492.21;477839;1191;141934;-58
2021/09/30 12:43:44;;;;;;;3.70;1.00;;;;;;;16.60;55.02;100494.64;476501;1190;141431;-58
2021/09/30 12:53:53;;;;;;;3.80;1.00;;;;;;;16.47;54.38;100503.13;459851;1192;141037;-58
2021/09/30 13:04:07;;;;;;;2.10;1.40;;;;;;;16.52;53.85;100498.73;461667;1192;141270;-58
2021/09/30 13:14:22;;;;;;;3.20;1.60;;;;;;;16.56;53.37;100498.08;476525;1192;142646;-58
2021/09/30 13:24:29;;;;;;;3.80;1.80;;;;;;;16.53;52.46;100497.23;466841;1191;140862;-64
2021/09/30 13:34:35;;;;;;;2.00;0.80;;;;;;;16.22;52.27;100492.09;461479;1192;141333;-59
2021/09/30 13:44:41;;;;;;;1.90;1.00;;;;;;;16.24;52.55;100499.67;462577;1190;143419;-59
2021/09/30 13:54:47;;;;;;;6.00;1.00;;;;;;;16.05;52.67;100498.42;473958;1190;141501;-60
2021/09/30 14:04:55;;;;;;;4.20;1.80;;;;;;;15.87;52.67;100495.34;477915;1189;141347;-62
2021/09/30 14:15:01;;;;;;;2.90;1.00;;;;;;;15.57;53.10;100490.84;477021;1190;142879;-63
2021/09/30 14:25:10;;;;;;;3.20;1.00;;;;;;;15.29;53.03;100490.66;472926;1191;140752;-64
2021/09/30 14:35:17;;;;;;;2.50;0.80;;;;;;;15.38;53.19;100485.13;468163;1191;141225;-63
2021/09/30 14:45:24;;;;;;;2.30;1.00;;;;;;;15.32;53.08;100481.30;453177;1190;20002286;-61
2021/09/30 14:55:30;;;;;;;2.50;1.20;;;;;;;15.11;53.73;100485.92;461109;1190;141322;-62
2021/09/30 15:05:37;;;;;;;5.50;1.40;;;;;;;14.78;54.32;100490.08;469258;1190;140965;-62
2021/09/30 15:15:43;;;;;;;3.60;1.10;;;;;;;14.51;54.78;100490.23;463739;1190;140860;-67
2021/09/30 15:25:50;;;;;;;4.10;1.10;;;;;;;14.23;55.48;100493.48;472418;1190;141816;-68
2021/09/30 15:35:56;;;;;;;3.80;1.40;;;;;;;14.08;56.53;100496.70;472659;1190;141525;-69
2021/09/30 15:46:03;;;;;;;4.20;2.00;;;;;;;13.95;57.29;100499.45;474678;1191;141336;-68
2021/09/30 15:56:09;;;;;;;3.40;1.50;;;;;;;13.80;58.18;100504.46;465406;1190;142327;-68
2021/09/30 16:06:16;;;;;;;2.60;2.00;;;;;;;13.66;59.12;100516.25;463386;1190;141186;-67
2021/09/30 16:16:21;;;;;;;8.30;2.30;;;;;;;13.40;60.35;100518.86;461262;1191;140631;-68
2021/09/30 16:26:27;;;;;;;6.80;3.00;;;;;;;13.06;61.59;100530.52;460437;1191;142455;-68
2021/09/30 16:36:33;;;;;;;6.70;3.90;;;;;;;12.56;62.41;100532.04;470282;1190;141538;-67
2021/09/30 16:46:39;;;;;;;18.20;8.00;;;;;;;12.01;63.37;100539.23;469332;1190;140865;-67
2021/09/30 16:56:45;;;;;;;17.40;8.50;;;;;;;11.77;64.51;100546.66;476436;1190;145931;-67
2021/09/30 17:06:51;;;;;;;11.60;7.20;;;;;;;11.72;65.33;100550.46;466361;1190;141790;-65
2021/09/30 17:16:58;;;;;;;16.50;9.90;;;;;;;11.37;65.73;100558.60;471543;1190;143588;-66
2021/09/30 17:27:06;;;;;;;11.80;6.10;;;;;;;10.93;66.47;100556.42;470398;1190;141591;-65
2021/09/30 17:37:12;;;;;;;7.60;6.00;;;;;;;10.47;67.25;100560.35;462819;1190;141487;-63
2021/09/30 17:47:18;;;;;;;17.10;11.80;;;;;;;10.00;67.99;100569.02;473013;1191;142608;-58
2021/09/30 17:57:25;;;;;;;27.00;16.20;;;;;;;9.64;68.26;100576.55;475350;1191;143209;-60
2021/09/30 18:07:31;;;;;;;30.40;18.70;;;;;;;9.31;68.73;100588.99;447346;1191;10002111;-60
2021/09/30 18:17:38;;;;;;;32.60;21.60;;;;;;;9.00;69.23;100590.98;465507;1191;143406;-59
2021/09/30 18:27:48;;;;;;;28.70;20.80;;;;;;;8.69;69.68;100597.11;462232;1192;142125;-59
2021/09/30 18:37:54;;;;;;;30.50;23.20;;;;;;;8.36;70.20;100600.10;474781;1191;142200;-58
2021/09/30 18:48:00;;;;;;;30.90;21.10;;;;;;;8.05;70.58;100605.98;469029;1191;142636;-63
2021/09/30 18:58:06;;;;;;;42.20;25.10;;;;;;;7.75;71.06;100618.91;466752;1191;142297;-62
2021/09/30 19:08:15;;;;;;;30.60;22.00;;;;;;;7.50;71.25;100621.19;464128;1192;142822;-64
2021/09/30 19:18:22;;;;;;;35.10;25.30;;;;;;;7.27;71.33;100635.39;467136;1191;142763;-64
2021/09/30 19:28:28;;;;;;;29.50;23.30;;;;;;;7.05;71.80;100643.91;461710;1192;142562;-62
2021/09/30 19:38:35;;;;;;;34.60;23.30;;;;;;;6.82;72.18;100656.16;461782;1191;142913;-62
2021/09/30 19:48:42;;;;;;;34.90;24.30;;;;;;;6.55;72.34;100662.69;466073;1191;141527;-63
2021/09/30 19:58:49;;;;;;;37.30;25.70;;;;;;;6.34;72.55;100665.41;477508;1190;142352;-63
2021/09/30 20:08:56;;;;;;;33.90;27.20;;;;;;;6.17;72.79;100664.67;469435;1191;142469;-58
2021/09/30 20:19:02;;;;;;;37.30;29.20;;;;;;;5.99;72.94;100671.92;473112;1190;142148;-58
2021/09/30 20:29:13;;;;;;;44.30;31.50;;;;;;;5.85;73.26;100671.44;472130;1191;141496;-56
2021/09/30 20:39:18;;;;;;;41.00;29.40;;;;;;;5.74;73.46;100677.42;471441;1191;198035;-58
2021/09/30 20:49:24;;;;;;;41.70;30.90;;;;;;;5.61;73.36;100682.98;469553;1190;142541;-59
2021/09/30 20:59:30;;;;;;;42.00;32.80;;;;;;;5.47;73.68;100690.82;474241;1191;141657;-58
2021/09/30 21:09:37;;;;;;;40.00;34.00;;;;;;;5.35;73.62;100698.59;465553;1191;145910;-59
2021/09/30 21:19:43;;;;;;;46.90;35.50;;;;;;;5.20;73.84;100694.94;469855;1191;141187;-59
2021/09/30 21:29:49;;;;;;;40.60;32.40;;;;;;;5.04;74.35;100699.13;471969;1191;142456;-59
2021/09/30 21:39:56;;;;;;;41.60;31.50;;;;;;;4.91;74.46;100699.27;476335;1190;141872;-62
2021/09/30 21:50:02;;;;;;;45.70;33.70;;;;;;;4.84;74.61;100696.46;463697;1191;142457;-57
2021/09/30 22:00:16;;;;;;;46.10;33.80;;;;;;;4.73;74.51;100688.72;462189;1190;141833;-57
2021/09/30 22:10:23;;;;;;;50.60;36.60;;;;;;;4.60;74.39;100692.30;472202;1190;143397;-58
2021/09/30 22:20:29;;;;;;;45.20;35.20;;;;;;;4.49;74.72;100702.23;469208;1190;142585;-57
2021/09/30 22:30:37;;;;;;;56.40;34.60;;;;;;;4.39;74.78;100691.88;470647;1188;145715;-55
2021/09/30 22:40:45;;;;;;;40.20;30.20;;;;;;;4.36;75.18;100693.50;475670;1190;142363;-59
2021/09/30 22:50:52;;;;;;;46.30;34.30;;;;;;;4.28;75.33;100705.42;466192;1190;142356;-59
2021/09/30 23:00:58;;;;;;;54.20;34.90;;;;;;;4.14;75.52;100708.83;473929;1189;140973;-60
2021/09/30 23:11:05;;;;;;;40.70;30.50;;;;;;;4.04;75.37;100704.17;466666;1190;141208;-58
2021/09/30 23:21:11;;;;;;;38.90;28.90;;;;;;;3.96;75.41;100706.56;467789;1192;142514;-58
2021/09/30 23:31:19;;;;;;;46.20;32.50;;;;;;;3.87;75.56;100714.34;477848;1190;141490;-60
2021/09/30 23:41:25;;;;;;;49.00;33.60;;;;;;;3.78;75.72;100716.42;477119;1190;141513;-61
2021/09/30 23:51:31;;;;;;;46.70;30.70;;;;;;;3.72;75.70;100719.98;477393;1191;142033;-60
